createdAt,value
2019-02-10T00:00:01.765Z,7.13
2019-02-10T00:01:01.767Z,7.21
2019-02-10T00:02:01.741Z,7.21
2019-02-10T00:03:01.727Z,7.23
2019-02-10T00:04:01.718Z,7.24
2019-02-10T00:05:01.730Z,7.23
2019-02-10T00:06:01.704Z,7.10
2019-02-10T00:07:01.698Z,7.09
2019-02-10T00:08:01.675Z,7.12
2019-02-10T00:09:01.660Z,7.06
2019-02-10T00:10:01.653Z,7.05
2019-02-10T00:11:01.647Z,7.02
2019-02-10T00:12:01.651Z,7.06
2019-02-10T00:13:01.624Z,7.02
2019-02-10T00:14:01.606Z,6.95
2019-02-10T00:15:01.597Z,7.02
2019-02-10T00:16:01.599Z,6.88
2019-02-10T00:17:01.575Z,6.92
2019-02-10T00:18:01.559Z,6.89
2019-02-10T00:19:01.555Z,6.95
2019-02-10T00:20:01.540Z,6.94
2019-02-10T00:21:01.539Z,6.85
2019-02-10T00:22:01.517Z,6.98
2019-02-10T00:23:01.515Z,6.97
2019-02-10T00:24:01.497Z,7.02
2019-02-10T00:25:01.490Z,7.06
2019-02-10T00:26:01.490Z,7.10
2019-02-10T00:27:01.470Z,7.20
2019-02-10T00:28:01.447Z,7.24
2019-02-10T00:29:01.436Z,7.24
2019-02-10T00:30:01.456Z,7.30
2019-02-10T00:31:01.429Z,7.28
2019-02-10T00:32:01.405Z,7.34
2019-02-10T00:33:01.392Z,7.31
2019-02-10T00:34:01.385Z,7.39
2019-02-10T00:35:01.368Z,7.39
2019-02-10T00:36:01.370Z,7.53
2019-02-10T00:37:01.349Z,7.49
2019-02-10T00:38:01.336Z,7.43
2019-02-10T00:39:01.325Z,7.49
2019-02-10T00:40:01.319Z,7.49
2019-02-10T00:41:01.328Z,7.46
2019-02-10T00:42:01.287Z,7.55
2019-02-10T00:43:01.275Z,7.57
2019-02-10T00:44:01.268Z,7.53
2019-02-10T00:45:01.257Z,7.60
2019-02-10T00:46:01.257Z,7.55
2019-02-10T00:47:01.239Z,7.58
2019-02-10T00:48:01.233Z,7.63
2019-02-10T00:49:01.213Z,7.57
2019-02-10T00:50:01.199Z,7.64
2019-02-10T00:51:01.189Z,7.61
2019-02-10T00:52:01.191Z,7.57
2019-02-10T00:53:01.167Z,7.58
2019-02-10T00:54:01.158Z,7.58
2019-02-10T00:55:01.263Z,7.53
2019-02-10T00:56:01.132Z,7.52
2019-02-10T00:57:01.135Z,7.53
2019-02-10T00:58:01.110Z,7.55
2019-02-10T00:59:01.097Z,7.57
2019-02-10T01:00:01.096Z,7.55
2019-02-10T01:01:01.074Z,7.55
2019-02-10T01:02:01.085Z,7.53
2019-02-10T01:03:01.050Z,7.52
2019-02-10T01:04:01.043Z,7.60
2019-02-10T01:05:01.032Z,7.55
2019-02-10T01:06:01.016Z,7.57
2019-02-10T01:07:01.028Z,7.60
2019-02-10T01:08:00.998Z,7.61
2019-02-10T01:09:00.985Z,7.61
2019-02-10T01:10:00.983Z,7.60
2019-02-10T01:11:00.962Z,7.63
2019-02-10T01:12:00.976Z,7.63
2019-02-10T01:13:00.950Z,7.58
2019-02-10T01:14:00.927Z,7.60
2019-02-10T01:15:00.921Z,7.69
2019-02-10T01:16:00.906Z,7.67
2019-02-10T01:17:00.929Z,7.58
2019-02-10T01:18:00.887Z,7.58
2019-02-10T01:19:00.871Z,7.52
2019-02-10T01:20:00.862Z,7.57
2019-02-10T01:21:00.848Z,7.55
2019-02-10T01:22:00.838Z,7.40
2019-02-10T01:23:00.845Z,7.46
2019-02-10T01:24:00.819Z,7.46
2019-02-10T01:25:00.811Z,7.39
2019-02-10T01:26:00.793Z,7.48
2019-02-10T01:27:00.781Z,7.40
2019-02-10T01:28:00.782Z,7.42
2019-02-10T01:29:00.767Z,7.45
2019-02-10T01:30:00.756Z,7.49
2019-02-10T01:31:00.738Z,7.48
2019-02-10T01:32:00.728Z,7.46
2019-02-10T01:33:00.730Z,7.46
2019-02-10T01:34:00.702Z,7.55
2019-02-10T01:35:00.705Z,7.61
2019-02-10T01:36:00.682Z,7.52
2019-02-10T01:37:00.669Z,7.55
2019-02-10T01:38:00.674Z,7.55
2019-02-10T01:39:00.649Z,7.55
2019-02-10T01:40:00.638Z,7.58
2019-02-10T01:41:00.631Z,7.53
2019-02-10T01:42:00.615Z,7.55
2019-02-10T01:43:00.612Z,7.55
2019-02-10T01:44:00.591Z,7.60
2019-02-10T01:45:00.580Z,7.64
2019-02-10T01:46:00.583Z,7.67
2019-02-10T01:47:00.561Z,7.68
2019-02-10T01:48:00.558Z,7.71
2019-02-10T01:49:00.550Z,7.60
2019-02-10T01:50:00.525Z,7.71
2019-02-10T01:51:00.525Z,7.64
2019-02-10T01:52:00.504Z,7.79
2019-02-10T01:53:00.510Z,7.74
2019-02-10T01:54:00.479Z,7.77
2019-02-10T01:55:00.468Z,7.74
2019-02-10T01:56:00.457Z,7.82
2019-02-10T01:57:00.446Z,7.77
2019-02-10T01:58:00.438Z,7.74
2019-02-10T01:59:00.456Z,7.77
2019-02-10T02:00:00.428Z,7.79
2019-02-10T02:01:00.399Z,7.80
2019-02-10T02:02:00.391Z,7.71
2019-02-10T02:03:00.384Z,7.61
2019-02-10T02:04:00.383Z,7.63
2019-02-10T02:05:00.372Z,7.64
2019-02-10T02:06:00.346Z,7.61
2019-02-10T02:07:00.334Z,7.61
2019-02-10T02:08:00.324Z,7.61
2019-02-10T02:09:00.324Z,7.67
2019-02-10T02:10:00.318Z,7.63
2019-02-10T02:11:00.287Z,7.67
2019-02-10T02:12:00.276Z,7.60
2019-02-10T02:13:00.268Z,7.69
2019-02-10T02:14:00.276Z,7.64
2019-02-10T02:15:00.324Z,7.67
2019-02-10T02:16:00.230Z,7.63
2019-02-10T02:17:00.227Z,7.61
2019-02-10T02:18:00.209Z,7.61
2019-02-10T02:19:00.211Z,7.67
2019-02-10T02:20:00.230Z,7.60
2019-02-10T02:21:00.207Z,7.67
2019-02-10T02:22:00.167Z,7.72
2019-02-10T02:23:00.155Z,7.60
2019-02-10T02:24:00.168Z,7.60
2019-02-10T02:25:00.268Z,7.63
2019-02-10T02:26:00.125Z,7.64
2019-02-10T02:27:00.121Z,7.67
2019-02-10T02:28:00.101Z,7.71
2019-02-10T02:29:00.115Z,7.67
2019-02-10T02:30:00.156Z,7.69
2019-02-10T02:31:00.074Z,7.57
2019-02-10T02:32:00.053Z,7.79
2019-02-10T02:33:00.042Z,7.74
2019-02-10T02:34:00.041Z,7.83
2019-02-10T02:35:00.018Z,7.89
2019-02-10T02:36:00.020Z,7.82
2019-02-10T02:37:07.625Z,7.85
2019-02-10T02:38:00.983Z,7.93
2019-02-10T02:38:59.984Z,7.87
2019-02-10T02:39:59.962Z,7.93
2019-02-10T02:40:59.951Z,7.95
2019-02-10T02:41:59.938Z,7.90
2019-02-10T02:42:59.933Z,8.02
2019-02-10T02:43:59.939Z,8.02
2019-02-10T02:44:59.907Z,8.04
2019-02-10T02:45:59.892Z,8.01
2019-02-10T02:46:59.886Z,8.07
2019-02-10T02:47:59.883Z,8.02
2019-02-10T02:48:59.860Z,8.05
2019-02-10T02:49:59.863Z,8.12
2019-02-10T02:51:00.993Z,8.10
2019-02-10T02:51:59.827Z,8.12
2019-02-10T02:52:59.815Z,8.15
2019-02-10T02:53:59.805Z,8.15
2019-02-10T02:54:59.805Z,8.08
2019-02-10T02:55:59.781Z,8.10
2019-02-10T02:56:59.777Z,8.07
2019-02-10T02:57:59.762Z,8.11
2019-02-10T02:58:59.753Z,8.07
2019-02-10T02:59:59.747Z,8.11
2019-02-10T03:00:59.743Z,8.08
2019-02-10T03:01:59.721Z,8.04
2019-02-10T03:02:59.705Z,8.07
2019-02-10T03:03:59.744Z,8.05
2019-02-10T03:04:59.695Z,8.16
2019-02-10T03:05:59.674Z,8.16
2019-02-10T03:06:59.670Z,8.07
2019-02-10T03:07:59.654Z,8.11
2019-02-10T03:08:59.636Z,8.02
2019-02-10T03:09:59.648Z,8.22
2019-02-10T03:10:59.612Z,8.07
2019-02-10T03:11:59.601Z,8.08
2019-02-10T03:12:59.590Z,8.11
2019-02-10T03:13:59.581Z,8.10
2019-02-10T03:14:59.592Z,8.07
2019-02-10T03:15:59.562Z,8.11
2019-02-10T03:16:59.560Z,8.10
2019-02-10T03:17:59.536Z,8.18
2019-02-10T03:18:59.532Z,8.07
2019-02-10T03:19:59.579Z,8.05
2019-02-10T03:20:59.508Z,8.05
2019-02-10T03:21:59.487Z,8.04
2019-02-10T03:22:59.480Z,8.08
2019-02-10T03:23:59.478Z,8.07
2019-02-10T03:24:59.467Z,8.02
2019-02-10T03:25:59.451Z,8.01
2019-02-10T03:26:59.444Z,8.05
2019-02-10T03:27:59.433Z,8.02
2019-02-10T03:28:59.414Z,8.05
2019-02-10T03:29:59.414Z,8.11
2019-02-10T03:30:59.411Z,8.01
2019-02-10T03:31:59.383Z,8.08
2019-02-10T03:32:59.366Z,8.07
2019-02-10T03:33:59.353Z,8.01
2019-02-10T03:34:59.369Z,8.07
2019-02-10T03:35:59.345Z,8.11
2019-02-10T03:36:59.323Z,8.04
2019-02-10T03:37:59.310Z,8.07
2019-02-10T03:38:59.299Z,8.02
2019-02-10T03:39:59.306Z,8.10
2019-02-10T03:40:59.295Z,8.07
2019-02-10T03:41:59.269Z,8.07
2019-02-10T03:42:59.255Z,8.08
2019-02-10T03:43:59.242Z,8.10
2019-02-10T03:44:59.244Z,8.07
2019-02-10T03:45:59.221Z,8.05
2019-02-10T03:46:59.219Z,8.07
2019-02-10T03:47:59.200Z,8.04
2019-02-10T03:48:59.192Z,8.11
2019-02-10T03:49:59.177Z,8.18
2019-02-10T03:50:59.177Z,8.05
2019-02-10T03:51:59.159Z,8.05
2019-02-10T03:52:59.144Z,8.10
2019-02-10T03:53:59.138Z,8.12
2019-02-10T03:54:59.133Z,8.10
2019-02-10T03:55:59.122Z,8.08
2019-02-10T03:56:59.098Z,8.16
2019-02-10T03:57:59.092Z,8.15
2019-02-10T03:58:59.080Z,8.16
2019-02-10T03:59:59.064Z,8.18
2019-02-10T04:00:59.065Z,8.12
2019-02-10T04:01:59.046Z,8.18
2019-02-10T04:02:59.033Z,8.12
2019-02-10T04:03:59.020Z,8.23
2019-02-10T04:04:59.017Z,8.26
2019-02-10T04:05:59.009Z,8.23
2019-02-10T04:06:58.985Z,8.26
2019-02-10T04:07:58.972Z,8.25
2019-02-10T04:08:58.963Z,8.30
2019-02-10T04:09:58.955Z,8.33
2019-02-10T04:10:58.955Z,8.26
2019-02-10T04:11:58.933Z,8.29
2019-02-10T04:12:58.929Z,8.34
2019-02-10T04:13:58.907Z,8.26
2019-02-10T04:14:58.894Z,8.23
2019-02-10T04:15:58.901Z,8.25
2019-02-10T04:16:58.886Z,8.11
2019-02-10T04:17:58.862Z,8.11
2019-02-10T04:18:58.851Z,8.11
2019-02-10T04:19:58.841Z,8.11
2019-02-10T04:20:58.842Z,8.05
2019-02-10T04:21:58.819Z,8.10
2019-02-10T04:22:58.806Z,8.00
2019-02-10T04:23:58.793Z,8.01
2019-02-10T04:24:58.783Z,8.02
2019-02-10T04:25:58.795Z,8.04
2019-02-10T04:26:58.764Z,7.98
2019-02-10T04:27:58.750Z,7.95
2019-02-10T04:28:58.737Z,8.01
2019-02-10T04:29:58.726Z,7.97
2019-02-10T04:30:58.715Z,8.00
2019-02-10T04:31:58.718Z,8.00
2019-02-10T04:32:58.696Z,7.90
2019-02-10T04:33:58.688Z,7.93
2019-02-10T04:34:58.671Z,7.93
2019-02-10T04:35:58.661Z,7.97
2019-02-10T04:36:58.663Z,8.05
2019-02-10T04:37:58.640Z,8.02
2019-02-10T04:38:58.632Z,8.07
2019-02-10T04:39:58.623Z,8.08
2019-02-10T04:40:58.602Z,8.16
2019-02-10T04:41:58.603Z,8.19
2019-02-10T04:42:58.582Z,8.10
2019-02-10T04:43:58.577Z,8.16
2019-02-10T04:44:58.572Z,8.11
2019-02-10T04:45:58.549Z,8.18
2019-02-10T04:46:58.554Z,8.16
2019-02-10T04:47:58.535Z,8.25
2019-02-10T04:48:58.511Z,8.28
2019-02-10T04:49:58.504Z,8.25
2019-02-10T04:50:58.489Z,8.28
2019-02-10T04:51:58.495Z,8.33
2019-02-10T04:52:58.467Z,8.36
2019-02-10T04:53:58.456Z,8.41
2019-02-10T04:54:58.449Z,8.22
2019-02-10T04:55:58.439Z,8.38
2019-02-10T04:56:58.441Z,8.40
2019-02-10T04:57:58.411Z,8.41
2019-02-10T04:58:58.400Z,8.48
2019-02-10T04:59:58.389Z,8.43
2019-02-10T05:00:58.384Z,8.40
2019-02-10T05:01:58.393Z,8.40
2019-02-10T05:02:58.354Z,8.43
2019-02-10T05:03:58.358Z,8.37
2019-02-10T05:04:58.330Z,8.37
2019-02-10T05:05:58.329Z,8.48
2019-02-10T05:06:58.345Z,8.38
2019-02-10T05:07:58.300Z,8.37
2019-02-10T05:08:58.296Z,8.45
2019-02-10T05:09:58.277Z,8.45
2019-02-10T05:10:58.270Z,8.40
2019-02-10T05:11:58.266Z,8.47
2019-02-10T05:12:58.259Z,8.48
2019-02-10T05:13:58.232Z,8.43
2019-02-10T05:14:58.224Z,8.47
2019-02-10T05:15:58.216Z,8.52
2019-02-10T05:16:58.245Z,8.45
2019-02-10T05:17:58.240Z,8.52
2019-02-10T05:18:58.178Z,8.52
2019-02-10T05:19:58.163Z,8.52
2019-02-10T05:20:58.153Z,8.50
2019-02-10T05:21:58.140Z,8.59
2019-02-10T05:22:58.149Z,8.55
2019-02-10T05:24:03.428Z,8.61
2019-02-10T05:24:59.106Z,8.62
2019-02-10T05:25:58.095Z,8.62
2019-02-10T05:26:58.082Z,8.62
2019-02-10T05:27:58.088Z,8.62
2019-02-10T05:28:58.071Z,8.53
2019-02-10T05:29:58.058Z,8.61
2019-02-10T05:30:58.037Z,8.59
2019-02-10T05:31:58.027Z,8.63
2019-02-10T05:32:58.104Z,8.58
2019-02-10T05:33:58.052Z,8.61
2019-02-10T05:34:57.994Z,8.62
2019-02-10T05:35:57.983Z,8.58
2019-02-10T05:36:57.983Z,8.61
2019-02-10T05:38:04.043Z,8.58
2019-02-10T05:38:58.947Z,8.58
2019-02-10T05:39:57.948Z,8.58
2019-02-10T05:40:57.934Z,8.61
2019-02-10T05:41:57.932Z,8.63
2019-02-10T05:42:57.944Z,8.61
2019-02-10T05:43:57.892Z,8.66
2019-02-10T05:44:57.885Z,8.63
2019-02-10T05:45:57.877Z,8.65
2019-02-10T05:46:57.883Z,8.70
2019-02-10T05:47:57.866Z,8.68
2019-02-10T05:48:57.841Z,8.68
2019-02-10T05:49:57.825Z,8.76
2019-02-10T05:50:57.816Z,8.76
2019-02-10T05:51:57.806Z,8.68
2019-02-10T05:52:57.820Z,8.77
2019-02-10T05:53:57.785Z,8.76
2019-02-10T05:54:57.773Z,8.73
2019-02-10T05:55:57.774Z,8.71
2019-02-10T05:56:57.749Z,8.70
2019-02-10T05:57:57.792Z,8.74
2019-02-10T05:58:57.725Z,8.77
2019-02-10T05:59:57.713Z,8.74
2019-02-10T06:00:57.702Z,8.77
2019-02-10T06:01:57.690Z,8.81
2019-02-10T06:02:57.691Z,8.76
2019-02-10T06:03:57.675Z,8.74
2019-02-10T06:04:57.658Z,8.74
2019-02-10T06:05:57.643Z,8.81
2019-02-10T06:06:57.638Z,8.74
2019-02-10T06:07:57.639Z,8.74
2019-02-10T06:08:57.611Z,8.76
2019-02-10T06:09:57.600Z,8.80
2019-02-10T06:10:57.589Z,8.83
2019-02-10T06:11:57.579Z,8.79
2019-02-10T06:12:57.569Z,8.76
2019-02-10T06:13:57.578Z,8.76
2019-02-10T06:14:57.545Z,8.77
2019-02-10T06:15:57.531Z,8.79
2019-02-10T06:16:57.521Z,8.74
2019-02-10T06:17:57.510Z,8.80
2019-02-10T06:18:57.512Z,8.76
2019-02-10T06:19:57.494Z,8.81
2019-02-10T06:20:57.474Z,8.77
2019-02-10T06:21:57.468Z,8.77
2019-02-10T06:22:57.453Z,8.80
2019-02-10T06:23:57.458Z,8.79
2019-02-10T06:24:57.439Z,8.71
2019-02-10T06:25:57.436Z,8.79
2019-02-10T06:26:57.409Z,8.74
2019-02-10T06:27:57.401Z,8.76
2019-02-10T06:28:57.407Z,8.80
2019-02-10T06:29:57.382Z,8.73
2019-02-10T06:30:57.382Z,8.84
2019-02-10T06:31:57.355Z,8.76
2019-02-10T06:32:57.342Z,8.79
2019-02-10T06:33:57.350Z,8.71
2019-02-10T06:34:57.319Z,8.74
2019-02-10T06:35:57.307Z,8.74
2019-02-10T06:36:57.298Z,8.76
2019-02-10T06:37:57.289Z,8.77
2019-02-10T06:38:57.286Z,8.77
2019-02-10T06:39:57.286Z,8.73
2019-02-10T06:40:57.259Z,8.76
2019-02-10T06:41:57.248Z,8.74
2019-02-10T06:42:57.230Z,8.77
2019-02-10T06:43:57.222Z,8.94
2019-02-10T06:44:57.218Z,8.91
2019-02-10T06:45:57.197Z,8.81
2019-02-10T06:46:57.189Z,8.84
2019-02-10T06:47:57.814Z,8.94
2019-02-10T06:48:57.164Z,8.92
2019-02-10T06:49:57.168Z,8.91
2019-02-10T06:50:57.139Z,8.92
2019-02-10T06:51:57.130Z,8.95
2019-02-10T06:52:57.117Z,8.94
2019-02-10T06:53:57.129Z,9.02
2019-02-10T06:54:57.107Z,9.04
2019-02-10T06:55:57.090Z,8.91
2019-02-10T06:56:57.090Z,8.91
2019-02-10T06:57:57.062Z,8.96
2019-02-10T06:58:57.053Z,9.04
2019-02-10T06:59:57.050Z,9.11
2019-02-10T07:00:57.029Z,9.17
2019-02-10T07:01:57.023Z,9.13
2019-02-10T07:02:57.005Z,9.11
2019-02-10T07:03:57.011Z,9.11
2019-02-10T07:04:57.000Z,9.20
2019-02-10T07:05:56.977Z,9.21
2019-02-10T07:06:56.977Z,9.21
2019-02-10T07:07:56.987Z,9.20
2019-02-10T07:08:56.941Z,9.14
2019-02-10T07:09:56.947Z,9.15
2019-02-10T07:10:56.914Z,9.17
2019-02-10T07:11:56.906Z,9.15
2019-02-10T07:12:56.891Z,9.13
2019-02-10T07:13:56.883Z,9.10
2019-02-10T07:14:56.898Z,9.14
2019-02-10T07:15:56.859Z,9.11
2019-02-10T07:16:56.846Z,9.11
2019-02-10T07:17:56.840Z,9.18
2019-02-10T07:18:56.836Z,9.17
2019-02-10T07:19:56.814Z,9.10
2019-02-10T07:20:56.822Z,9.24
2019-02-10T07:21:56.791Z,9.20
2019-02-10T07:22:56.781Z,9.24
2019-02-10T07:23:56.769Z,9.35
2019-02-10T07:24:56.757Z,9.31
2019-02-10T07:25:56.762Z,9.35
2019-02-10T07:26:56.757Z,9.39
2019-02-10T07:27:56.729Z,9.53
2019-02-10T07:28:56.716Z,9.53
2019-02-10T07:29:56.702Z,9.54
2019-02-10T07:30:56.705Z,9.51
2019-02-10T07:31:56.690Z,9.53
2019-02-10T07:32:56.673Z,9.69
2019-02-10T07:33:58.520Z,9.57
2019-02-10T07:34:56.655Z,9.69
2019-02-10T07:35:56.648Z,9.72
2019-02-10T07:36:56.624Z,9.69
2019-02-10T07:37:56.614Z,9.66
2019-02-10T07:38:56.604Z,9.72
2019-02-10T07:39:56.592Z,9.66
2019-02-10T07:40:56.590Z,9.75
2019-02-10T07:41:56.566Z,9.79
2019-02-10T07:42:56.558Z,9.83
2019-02-10T07:43:56.555Z,9.83
2019-02-10T07:44:56.534Z,9.81
2019-02-10T07:45:56.545Z,9.78
2019-02-10T07:46:56.511Z,9.90
2019-02-10T07:47:56.514Z,9.90
2019-02-10T07:48:56.497Z,9.93
2019-02-10T07:49:56.481Z,10.02
2019-02-10T07:50:56.482Z,9.96
2019-02-10T07:51:56.457Z,9.97
2019-02-10T07:52:56.445Z,10.02
2019-02-10T07:53:56.436Z,9.99
2019-02-10T07:54:56.419Z,10.04
2019-02-10T07:55:56.425Z,10.01
2019-02-10T07:56:56.401Z,10.08
2019-02-10T07:57:56.387Z,10.04
2019-02-10T07:58:56.385Z,9.99
2019-02-10T07:59:56.366Z,10.05
2019-02-10T08:00:56.352Z,10.08
2019-02-10T08:01:56.357Z,9.94
2019-02-10T08:02:56.329Z,10.02
2019-02-10T08:03:56.333Z,10.02
2019-02-10T08:04:56.313Z,10.07
2019-02-10T08:05:56.293Z,9.94
2019-02-10T08:06:56.302Z,9.94
2019-02-10T08:07:56.273Z,10.05
2019-02-10T08:08:56.271Z,10.01
2019-02-10T08:09:56.255Z,10.05
2019-02-10T08:10:56.243Z,9.99
2019-02-10T08:11:56.259Z,9.94
2019-02-10T08:12:56.233Z,9.96
2019-02-10T08:13:56.203Z,9.87
2019-02-10T08:14:56.194Z,9.84
2019-02-10T08:15:56.186Z,9.89
2019-02-10T08:16:56.192Z,9.90
2019-02-10T08:17:56.162Z,9.79
2019-02-10T08:18:56.148Z,9.86
2019-02-10T08:19:56.138Z,9.84
2019-02-10T08:20:56.125Z,9.78
2019-02-10T08:21:56.125Z,9.81
2019-02-10T08:22:56.115Z,9.78
2019-02-10T08:23:56.112Z,9.87
2019-02-10T08:24:56.083Z,9.72
2019-02-10T08:25:56.072Z,9.64
2019-02-10T08:26:56.077Z,9.69
2019-02-10T08:27:56.050Z,9.71
2019-02-10T08:28:56.040Z,9.58
2019-02-10T08:29:56.051Z,9.53
2019-02-10T08:30:56.016Z,9.58
2019-02-10T08:31:56.012Z,9.51
2019-02-10T08:32:55.991Z,9.56
2019-02-10T08:33:57.229Z,9.42
2019-02-10T08:34:55.973Z,9.29
2019-02-10T08:35:55.955Z,9.32
2019-02-10T08:36:55.956Z,9.31
2019-02-10T08:37:55.934Z,9.32
2019-02-10T08:38:55.920Z,9.36
2019-02-10T08:39:55.915Z,9.23
2019-02-10T08:40:55.910Z,9.32
2019-02-10T08:41:55.923Z,9.32
2019-02-10T08:42:55.879Z,9.36
2019-02-10T08:43:55.865Z,9.33
2019-02-10T08:44:55.857Z,9.39
2019-02-10T08:45:55.860Z,9.33
2019-02-10T08:46:55.850Z,9.31
2019-02-10T08:47:55.828Z,9.35
2019-02-10T08:48:55.809Z,9.36
2019-02-10T08:49:55.799Z,9.33
2019-02-10T08:50:55.793Z,9.23
2019-02-10T08:51:55.812Z,9.26
2019-02-10T08:52:55.763Z,9.31
2019-02-10T08:53:55.752Z,9.33
2019-02-10T08:54:55.748Z,9.31
2019-02-10T08:55:55.745Z,9.26
2019-02-10T08:56:55.748Z,9.33
2019-02-10T08:57:55.726Z,9.32
2019-02-10T08:58:55.699Z,9.23
2019-02-10T08:59:55.687Z,9.28
2019-02-10T09:00:55.684Z,9.31
2019-02-10T09:01:55.662Z,9.24
2019-02-10T09:02:55.687Z,9.23
2019-02-10T09:03:55.646Z,9.23
2019-02-10T09:04:55.634Z,9.21
2019-02-10T09:05:55.621Z,9.26
2019-02-10T09:06:55.611Z,9.31
2019-02-10T09:07:55.608Z,9.28
2019-02-10T09:09:02.405Z,9.36
2019-02-10T09:09:56.575Z,9.36
2019-02-10T09:10:55.564Z,9.36
2019-02-10T09:11:55.549Z,9.32
2019-02-10T09:12:55.554Z,9.33
2019-02-10T09:13:55.534Z,9.36
2019-02-10T09:14:55.516Z,9.47
2019-02-10T09:15:55.506Z,9.38
2019-02-10T09:16:55.493Z,9.42
2019-02-10T09:17:55.497Z,9.42
2019-02-10T09:18:55.470Z,9.47
2019-02-10T09:19:55.463Z,9.51
2019-02-10T09:20:55.449Z,9.53
2019-02-10T09:21:55.437Z,9.51
2019-02-10T09:22:55.439Z,9.54
2019-02-10T09:23:55.425Z,9.64
2019-02-10T09:24:55.407Z,9.54
2019-02-10T09:25:55.407Z,9.56
2019-02-10T09:26:55.381Z,9.61
2019-02-10T09:27:55.398Z,9.58
2019-02-10T09:28:55.382Z,9.71
2019-02-10T09:29:55.353Z,9.74
2019-02-10T09:30:55.339Z,9.86
2019-02-10T09:31:55.331Z,9.79
2019-02-10T09:32:55.332Z,10.04
2019-02-10T09:33:55.307Z,9.99
2019-02-10T09:34:55.302Z,10.09
2019-02-10T09:35:55.287Z,10.18
2019-02-10T09:36:55.275Z,10.07
2019-02-10T09:37:55.280Z,10.25
2019-02-10T09:38:55.247Z,10.30
2019-02-10T09:39:55.236Z,10.30
2019-02-10T09:40:55.240Z,10.40
2019-02-10T09:41:55.215Z,10.38
2019-02-10T09:42:55.216Z,10.55
2019-02-10T09:43:55.197Z,10.63
2019-02-10T09:44:55.184Z,10.64
2019-02-10T09:45:55.181Z,10.66
2019-02-10T09:46:55.158Z,10.78
2019-02-10T09:47:55.173Z,10.67
2019-02-10T09:48:55.143Z,10.79
2019-02-10T09:49:55.126Z,10.91
2019-02-10T09:50:55.113Z,10.91
2019-02-10T09:51:55.104Z,10.97
2019-02-10T09:52:55.090Z,10.97
2019-02-10T09:53:55.092Z,11.00
2019-02-10T09:54:55.071Z,11.04
2019-02-10T09:55:55.055Z,11.03
2019-02-10T09:56:55.061Z,11.06
2019-02-10T09:57:55.032Z,11.10
2019-02-10T09:58:55.034Z,11.09
2019-02-10T09:59:55.010Z,11.18
2019-02-10T10:00:55.011Z,11.18
2019-02-10T10:01:54.990Z,11.17
2019-02-10T10:02:54.991Z,11.18
2019-02-10T10:03:54.977Z,11.40
2019-02-10T10:04:54.954Z,11.44
2019-02-10T10:05:54.943Z,11.49
2019-02-10T10:06:54.934Z,11.64
2019-02-10T10:07:54.938Z,11.61
2019-02-10T10:08:54.928Z,11.60
2019-02-10T10:09:54.897Z,11.62
2019-02-10T10:10:54.885Z,11.64
2019-02-10T10:11:54.875Z,11.62
2019-02-10T10:12:54.865Z,11.75
2019-02-10T10:13:54.868Z,11.67
2019-02-10T10:14:54.840Z,11.76
2019-02-10T10:15:54.877Z,11.72
2019-02-10T10:16:54.817Z,11.76
2019-02-10T10:17:54.814Z,11.69
2019-02-10T10:18:54.809Z,11.78
2019-02-10T10:19:55.023Z,11.64
2019-02-10T10:20:54.776Z,11.79
2019-02-10T10:21:54.761Z,11.76
2019-02-10T10:22:54.751Z,11.80
2019-02-10T10:23:54.748Z,11.86
2019-02-10T10:24:54.730Z,11.95
2019-02-10T10:25:54.722Z,11.91
2019-02-10T10:26:54.704Z,11.82
2019-02-10T10:27:54.697Z,11.94
2019-02-10T10:28:54.693Z,12.01
2019-02-10T10:29:54.669Z,12.01
2019-02-10T10:30:54.658Z,11.99
2019-02-10T10:31:54.648Z,12.07
2019-02-10T10:32:54.640Z,12.12
2019-02-10T10:33:54.646Z,12.09
2019-02-10T10:34:54.617Z,12.10
2019-02-10T10:35:54.604Z,12.12
2019-02-10T10:36:54.592Z,12.27
2019-02-10T10:37:54.580Z,12.31
2019-02-10T10:38:54.579Z,12.37
2019-02-10T10:39:54.561Z,12.39
2019-02-10T10:40:54.553Z,12.42
2019-02-10T10:41:54.537Z,12.47
2019-02-10T10:42:54.523Z,12.53
2019-02-10T10:43:54.516Z,12.53
2019-02-10T10:44:54.522Z,12.52
2019-02-10T10:45:54.501Z,12.57
2019-02-10T10:46:54.481Z,12.60
2019-02-10T10:47:54.471Z,12.59
2019-02-10T10:48:54.457Z,12.59
2019-02-10T10:49:54.457Z,12.62
2019-02-10T10:50:54.433Z,12.57
2019-02-10T10:51:54.424Z,12.65
2019-02-10T10:52:54.410Z,12.62
2019-02-10T10:53:54.400Z,12.64
2019-02-10T10:54:54.398Z,12.56
2019-02-10T10:55:54.384Z,12.54
2019-02-10T10:56:54.368Z,12.64
2019-02-10T10:57:54.356Z,12.53
2019-02-10T10:58:54.359Z,12.49
2019-02-10T10:59:54.339Z,12.50
2019-02-10T11:00:54.319Z,12.46
2019-02-10T11:01:54.308Z,12.49
2019-02-10T11:02:54.300Z,12.52
2019-02-10T11:03:54.300Z,12.50
2019-02-10T11:04:54.307Z,12.46
2019-02-10T11:05:54.263Z,12.47
2019-02-10T11:06:54.253Z,12.42
2019-02-10T11:07:54.239Z,12.47
2019-02-10T11:08:54.232Z,12.41
2019-02-10T11:09:54.230Z,12.38
2019-02-10T11:10:54.207Z,12.41
2019-02-10T11:11:54.195Z,12.39
2019-02-10T11:12:54.185Z,12.38
2019-02-10T11:13:54.171Z,12.42
2019-02-10T11:14:54.178Z,12.35
2019-02-10T11:15:54.150Z,12.45
2019-02-10T11:16:54.138Z,12.38
2019-02-10T11:17:54.133Z,12.39
2019-02-10T11:18:54.117Z,12.29
2019-02-10T11:19:54.124Z,12.41
2019-02-10T11:20:54.097Z,12.34
2019-02-10T11:21:54.082Z,12.38
2019-02-10T11:22:54.071Z,12.37
2019-02-10T11:23:54.059Z,12.31
2019-02-10T11:24:54.062Z,12.23
2019-02-10T11:25:54.038Z,12.20
2019-02-10T11:26:54.027Z,12.27
2019-02-10T11:27:54.016Z,12.19
2019-02-10T11:28:54.000Z,12.07
2019-02-10T11:29:54.004Z,12.20
2019-02-10T11:30:53.983Z,12.07
2019-02-10T11:31:53.973Z,12.07
2019-02-10T11:32:53.961Z,12.13
2019-02-10T11:33:53.952Z,12.07
2019-02-10T11:34:53.937Z,12.19
2019-02-10T11:35:53.940Z,12.09
2019-02-10T11:36:53.911Z,12.09
2019-02-10T11:37:53.901Z,12.05
2019-02-10T11:38:53.893Z,12.02
2019-02-10T11:39:53.881Z,11.99
2019-02-10T11:40:53.883Z,11.96
2019-02-10T11:41:53.856Z,11.98
2019-02-10T11:42:53.854Z,11.98
2019-02-10T11:43:53.831Z,11.90
2019-02-10T11:44:53.821Z,11.98
2019-02-10T11:45:53.819Z,11.88
2019-02-10T11:46:53.816Z,11.75
2019-02-10T11:47:53.786Z,11.69
2019-02-10T11:48:53.776Z,11.73
2019-02-10T11:49:53.769Z,11.72
2019-02-10T11:50:53.764Z,11.70
2019-02-10T11:51:53.741Z,11.73
2019-02-10T11:52:53.733Z,11.70
2019-02-10T11:53:53.728Z,11.61
2019-02-10T11:54:53.710Z,11.61
2019-02-10T11:55:53.707Z,11.61
2019-02-10T11:56:53.685Z,11.58
2019-02-10T11:57:53.676Z,11.58
2019-02-10T11:58:53.662Z,11.52
2019-02-10T11:59:53.651Z,11.52
2019-02-10T12:00:53.669Z,11.43
2019-02-10T12:01:53.628Z,11.51
2019-02-10T12:02:53.625Z,11.49
2019-02-10T12:03:53.608Z,11.42
2019-02-10T12:04:53.597Z,11.40
2019-02-10T12:05:53.594Z,11.39
2019-02-10T12:06:53.576Z,11.29
2019-02-10T12:07:53.561Z,11.18
2019-02-10T12:08:53.546Z,11.15
2019-02-10T12:09:53.542Z,11.06
2019-02-10T12:10:53.537Z,10.99
2019-02-10T12:11:53.515Z,10.97
2019-02-10T12:12:53.506Z,10.86
2019-02-10T12:13:53.494Z,10.84
2019-02-10T12:14:53.481Z,10.68
2019-02-10T12:15:53.483Z,10.70
2019-02-10T12:16:53.457Z,10.67
2019-02-10T12:17:53.446Z,10.66
2019-02-10T12:18:53.437Z,10.64
2019-02-10T12:19:53.440Z,10.64
2019-02-10T12:20:53.424Z,10.63
2019-02-10T12:21:53.401Z,10.53
2019-02-10T12:22:53.389Z,10.53
2019-02-10T12:23:53.382Z,10.38
2019-02-10T12:24:53.370Z,10.38
2019-02-10T12:25:53.383Z,10.51
2019-02-10T12:26:53.347Z,10.38
2019-02-10T12:27:53.334Z,10.30
2019-02-10T12:28:53.321Z,10.36
2019-02-10T12:29:53.311Z,10.34
2019-02-10T12:30:53.299Z,10.36
2019-02-10T12:31:53.302Z,10.33
2019-02-10T12:32:53.294Z,10.25
2019-02-10T12:33:53.264Z,10.27
2019-02-10T12:34:53.255Z,10.33
2019-02-10T12:35:58.171Z,10.32
2019-02-10T12:36:54.277Z,10.29
2019-02-10T12:37:53.220Z,10.26
2019-02-10T12:38:53.209Z,10.29
2019-02-10T12:39:59.680Z,10.29
2019-02-10T12:40:54.187Z,10.23
2019-02-10T12:41:53.224Z,10.23
2019-02-10T12:42:53.180Z,10.23
2019-02-10T12:43:53.156Z,10.29
2019-02-10T12:44:53.140Z,10.25
2019-02-10T12:45:53.127Z,10.25
2019-02-10T12:46:53.139Z,10.23
2019-02-10T12:47:53.114Z,10.25
2019-02-10T12:48:53.093Z,10.26
2019-02-10T12:49:53.082Z,10.26
2019-02-10T12:50:53.071Z,10.20
2019-02-10T12:51:53.071Z,10.27
2019-02-10T12:52:53.056Z,10.30
2019-02-10T12:53:53.039Z,10.33
2019-02-10T12:54:53.030Z,10.32
2019-02-10T12:55:53.014Z,10.27
2019-02-10T12:56:53.022Z,10.40
2019-02-10T12:57:52.997Z,10.38
2019-02-10T12:58:52.988Z,10.40
2019-02-10T12:59:52.977Z,10.36
2019-02-10T13:00:52.963Z,10.33
2019-02-10T13:01:52.962Z,10.47
2019-02-10T13:02:52.939Z,10.41
2019-02-10T13:03:52.937Z,10.42
2019-02-10T13:04:52.913Z,10.47
2019-02-10T13:05:52.905Z,10.45
2019-02-10T13:06:52.907Z,10.53
2019-02-10T13:07:52.879Z,10.56
2019-02-10T13:08:52.868Z,10.52
2019-02-10T13:09:52.871Z,10.52